sensor_id;sensor_type;location;lat;lon;timestamp;P1;durP1;ratioP1;P2;durP2;ratioP2
64487;SDS011;50864;45.050;39.014;2023-07-24T00:01:22;9.90;;;6.50;;
64487;SDS011;50864;45.050;39.014;2023-07-24T00:03:48;10.35;;;6.07;;
64487;SDS011;50864;45.050;39.014;2023-07-24T00:06:14;10.52;;;6.28;;
64487;SDS011;50864;45.050;39.014;2023-07-24T00:08:40;7.25;;;5.72;;
64487;SDS011;50864;45.050;39.014;2023-07-24T00:11:08;10.07;;;6.43;;
64487;SDS011;50864;45.050;39.014;2023-07-24T00:13:34;11.32;;;6.47;;
64487;SDS011;50864;45.050;39.014;2023-07-24T00:16:00;11.25;;;6.30;;
64487;SDS011;50864;45.050;39.014;2023-07-24T00:18:26;12.05;;;6.95;;
64487;SDS011;50864;45.050;39.014;2023-07-24T00:20:52;10.88;;;6.40;;
64487;SDS011;50864;45.050;39.014;2023-07-24T00:23:17;10.32;;;6.30;;
64487;SDS011;50864;45.050;39.014;2023-07-24T00:25:43;11.05;;;6.95;;
64487;SDS011;50864;45.050;39.014;2023-07-24T00:28:09;9.23;;;6.78;;
64487;SDS011;50864;45.050;39.014;2023-07-24T00:30:37;10.93;;;7.15;;
64487;SDS011;50864;45.050;39.014;2023-07-24T00:33:03;10.02;;;6.80;;
64487;SDS011;50864;45.050;39.014;2023-07-24T00:35:29;10.43;;;6.47;;
64487;SDS011;50864;45.050;39.014;2023-07-24T00:37:55;10.48;;;6.93;;
64487;SDS011;50864;45.050;39.014;2023-07-24T00:40:21;9.80;;;6.95;;
64487;SDS011;50864;45.050;39.014;2023-07-24T00:42:47;12.43;;;7.43;;
64487;SDS011;50864;45.050;39.014;2023-07-24T00:45:13;12.52;;;8.30;;
64487;SDS011;50864;45.050;39.014;2023-07-24T00:47:40;11.05;;;7.28;;
64487;SDS011;50864;45.050;39.014;2023-07-24T00:50:06;11.15;;;8.52;;
64487;SDS011;50864;45.050;39.014;2023-07-24T00:52:32;11.57;;;9.43;;
64487;SDS011;50864;45.050;39.014;2023-07-24T00:54:59;14.55;;;8.18;;
64487;SDS011;50864;45.050;39.014;2023-07-24T00:57:24;11.98;;;7.95;;
64487;SDS011;50864;45.050;39.014;2023-07-24T00:59:50;16.67;;;9.45;;
64487;SDS011;50864;45.050;39.014;2023-07-24T01:02:17;10.93;;;8.20;;
64487;SDS011;50864;45.050;39.014;2023-07-24T01:04:42;11.88;;;8.70;;
64487;SDS011;50864;45.050;39.014;2023-07-24T01:07:08;12.88;;;9.00;;
64487;SDS011;50864;45.050;39.014;2023-07-24T01:09:34;12.13;;;8.15;;
64487;SDS011;50864;45.050;39.014;2023-07-24T01:12:04;13.62;;;9.05;;
64487;SDS011;50864;45.050;39.014;2023-07-24T01:17:01;12.32;;;8.52;;
64487;SDS011;50864;45.050;39.014;2023-07-24T01:27:10;12.93;;;9.63;;
64487;SDS011;50864;45.050;39.014;2023-07-24T01:29:36;12.23;;;8.95;;
64487;SDS011;50864;45.050;39.014;2023-07-24T01:32:01;13.00;;;9.23;;
64487;SDS011;50864;45.050;39.014;2023-07-24T01:34:28;12.73;;;9.75;;
64487;SDS011;50864;45.050;39.014;2023-07-24T01:36:54;11.60;;;9.07;;
64487;SDS011;50864;45.050;39.014;2023-07-24T01:39:19;16.77;;;10.02;;
64487;SDS011;50864;45.050;39.014;2023-07-24T01:41:46;13.35;;;9.27;;
64487;SDS011;50864;45.050;39.014;2023-07-24T01:44:12;12.10;;;9.35;;
64487;SDS011;50864;45.050;39.014;2023-07-24T01:46:39;14.30;;;9.65;;
64487;SDS011;50864;45.050;39.014;2023-07-24T01:49:05;12.88;;;9.10;;
64487;SDS011;50864;45.050;39.014;2023-07-24T01:51:31;13.25;;;9.70;;
64487;SDS011;50864;45.050;39.014;2023-07-24T01:53:57;13.75;;;10.07;;
64487;SDS011;50864;45.050;39.014;2023-07-24T01:56:23;14.18;;;9.43;;
64487;SDS011;50864;45.050;39.014;2023-07-24T01:58:49;15.85;;;9.93;;
64487;SDS011;50864;45.050;39.014;2023-07-24T02:01:15;11.20;;;8.90;;
64487;SDS011;50864;45.050;39.014;2023-07-24T02:03:41;15.25;;;8.93;;
64487;SDS011;50864;45.050;39.014;2023-07-24T02:06:07;14.00;;;9.80;;
64487;SDS011;50864;45.050;39.014;2023-07-24T02:08:33;17.80;;;11.68;;
64487;SDS011;50864;45.050;39.014;2023-07-24T02:10:59;14.48;;;9.18;;
64487;SDS011;50864;45.050;39.014;2023-07-24T02:13:25;16.70;;;9.73;;
64487;SDS011;50864;45.050;39.014;2023-07-24T02:15:51;15.27;;;10.57;;
64487;SDS011;50864;45.050;39.014;2023-07-24T02:18:19;14.18;;;9.75;;
64487;SDS011;50864;45.050;39.014;2023-07-24T02:20:48;12.13;;;9.88;;
64487;SDS011;50864;45.050;39.014;2023-07-24T02:23:16;12.85;;;9.50;;
64487;SDS011;50864;45.050;39.014;2023-07-24T02:25:42;13.57;;;9.88;;
64487;SDS011;50864;45.050;39.014;2023-07-24T02:28:08;13.52;;;9.63;;
64487;SDS011;50864;45.050;39.014;2023-07-24T02:30:37;12.82;;;9.43;;
64487;SDS011;50864;45.050;39.014;2023-07-24T02:33:03;12.20;;;9.48;;
64487;SDS011;50864;45.050;39.014;2023-07-24T02:35:29;14.63;;;10.38;;
64487;SDS011;50864;45.050;39.014;2023-07-24T02:37:56;13.40;;;9.77;;
64487;SDS011;50864;45.050;39.014;2023-07-24T02:40:23;12.70;;;9.30;;
64487;SDS011;50864;45.050;39.014;2023-07-24T02:42:49;13.25;;;10.10;;
64487;SDS011;50864;45.050;39.014;2023-07-24T02:45:15;12.02;;;9.45;;
64487;SDS011;50864;45.050;39.014;2023-07-24T02:47:41;13.62;;;9.63;;
64487;SDS011;50864;45.050;39.014;2023-07-24T02:50:08;13.55;;;9.77;;
64487;SDS011;50864;45.050;39.014;2023-07-24T02:52:34;11.95;;;8.82;;
64487;SDS011;50864;45.050;39.014;2023-07-24T02:54:59;13.00;;;9.45;;
64487;SDS011;50864;45.050;39.014;2023-07-24T02:57:25;13.35;;;8.85;;
64487;SDS011;50864;45.050;39.014;2023-07-24T02:59:51;12.05;;;9.55;;
64487;SDS011;50864;45.050;39.014;2023-07-24T03:02:17;14.63;;;9.30;;
64487;SDS011;50864;45.050;39.014;2023-07-24T03:04:43;14.52;;;9.85;;
64487;SDS011;50864;45.050;39.014;2023-07-24T03:07:09;13.40;;;8.77;;
64487;SDS011;50864;45.050;39.014;2023-07-24T03:09:34;14.27;;;9.50;;
64487;SDS011;50864;45.050;39.014;2023-07-24T03:12:00;13.02;;;9.25;;
64487;SDS011;50864;45.050;39.014;2023-07-24T03:14:26;12.77;;;9.07;;
64487;SDS011;50864;45.050;39.014;2023-07-24T03:16:52;11.07;;;8.60;;
64487;SDS011;50864;45.050;39.014;2023-07-24T03:19:18;11.80;;;8.30;;
64487;SDS011;50864;45.050;39.014;2023-07-24T03:21:46;12.05;;;8.60;;
64487;SDS011;50864;45.050;39.014;2023-07-24T03:24:11;13.93;;;8.50;;
64487;SDS011;50864;45.050;39.014;2023-07-24T03:26:37;11.82;;;8.55;;
64487;SDS011;50864;45.050;39.014;2023-07-24T03:29:04;12.40;;;8.40;;
64487;SDS011;50864;45.050;39.014;2023-07-24T03:31:30;13.50;;;8.63;;
64487;SDS011;50864;45.050;39.014;2023-07-24T03:33:56;12.15;;;8.32;;
64487;SDS011;50864;45.050;39.014;2023-07-24T03:36:22;16.67;;;10.10;;
64487;SDS011;50864;45.050;39.014;2023-07-24T03:38:47;12.90;;;8.68;;
64487;SDS011;50864;45.050;39.014;2023-07-24T03:41:13;12.07;;;8.50;;
64487;SDS011;50864;45.050;39.014;2023-07-24T03:43:39;11.65;;;8.18;;
64487;SDS011;50864;45.050;39.014;2023-07-24T03:46:05;11.90;;;8.55;;
64487;SDS011;50864;45.050;39.014;2023-07-24T03:48:30;13.18;;;8.00;;
64487;SDS011;50864;45.050;39.014;2023-07-24T03:50:59;10.48;;;8.15;;
64487;SDS011;50864;45.050;39.014;2023-07-24T03:53:26;14.13;;;8.07;;
64487;SDS011;50864;45.050;39.014;2023-07-24T03:55:52;12.25;;;7.95;;
64487;SDS011;50864;45.050;39.014;2023-07-24T03:58:18;11.25;;;7.80;;
64487;SDS011;50864;45.050;39.014;2023-07-24T04:00:43;12.20;;;7.57;;
64487;SDS011;50864;45.050;39.014;2023-07-24T04:03:09;10.60;;;7.53;;
64487;SDS011;50864;45.050;39.014;2023-07-24T04:05:35;10.65;;;7.72;;
64487;SDS011;50864;45.050;39.014;2023-07-24T04:08:01;12.10;;;7.53;;
64487;SDS011;50864;45.050;39.014;2023-07-24T04:10:27;10.18;;;7.72;;
64487;SDS011;50864;45.050;39.014;2023-07-24T04:12:53;9.23;;;7.03;;
64487;SDS011;50864;45.050;39.014;2023-07-24T04:15:18;13.60;;;7.60;;
64487;SDS011;50864;45.050;39.014;2023-07-24T04:17:44;13.07;;;8.32;;
64487;SDS011;50864;45.050;39.014;2023-07-24T04:20:10;9.75;;;7.45;;
64487;SDS011;50864;45.050;39.014;2023-07-24T04:22:36;11.68;;;7.28;;
64487;SDS011;50864;45.050;39.014;2023-07-24T04:25:02;11.77;;;7.15;;
64487;SDS011;50864;45.050;39.014;2023-07-24T04:27:28;9.70;;;7.15;;
64487;SDS011;50864;45.050;39.014;2023-07-24T04:29:54;10.63;;;7.28;;
64487;SDS011;50864;45.050;39.014;2023-07-24T04:32:20;9.68;;;7.28;;
64487;SDS011;50864;45.050;39.014;2023-07-24T04:34:46;10.32;;;7.00;;
64487;SDS011;50864;45.050;39.014;2023-07-24T04:37:12;14.32;;;8.25;;
64487;SDS011;50864;45.050;39.014;2023-07-24T04:39:38;11.02;;;7.75;;
64487;SDS011;50864;45.050;39.014;2023-07-24T04:42:04;10.70;;;7.18;;
64487;SDS011;50864;45.050;39.014;2023-07-24T04:44:30;11.60;;;7.20;;
64487;SDS011;50864;45.050;39.014;2023-07-24T04:46:57;11.70;;;7.05;;
64487;SDS011;50864;45.050;39.014;2023-07-24T04:49:23;11.20;;;6.75;;
64487;SDS011;50864;45.050;39.014;2023-07-24T04:51:50;11.82;;;7.00;;
64487;SDS011;50864;45.050;39.014;2023-07-24T04:54:16;9.63;;;6.82;;
64487;SDS011;50864;45.050;39.014;2023-07-24T04:56:42;10.45;;;7.12;;
64487;SDS011;50864;45.050;39.014;2023-07-24T04:59:08;11.35;;;6.90;;
64487;SDS011;50864;45.050;39.014;2023-07-24T05:01:34;9.40;;;6.57;;
64487;SDS011;50864;45.050;39.014;2023-07-24T05:04:00;9.68;;;6.72;;
64487;SDS011;50864;45.050;39.014;2023-07-24T05:06:26;10.93;;;6.40;;
64487;SDS011;50864;45.050;39.014;2023-07-24T05:08:52;13.02;;;6.53;;
64487;SDS011;50864;45.050;39.014;2023-07-24T05:11:18;8.88;;;6.37;;
64487;SDS011;50864;45.050;39.014;2023-07-24T05:13:44;10.77;;;6.18;;
64487;SDS011;50864;45.050;39.014;2023-07-24T05:16:10;8.65;;;5.90;;
64487;SDS011;50864;45.050;39.014;2023-07-24T05:18:35;8.02;;;5.57;;
64487;SDS011;50864;45.050;39.014;2023-07-24T05:21:01;10.95;;;5.50;;
64487;SDS011;50864;45.050;39.014;2023-07-24T05:23:27;7.80;;;5.78;;
64487;SDS011;50864;45.050;39.014;2023-07-24T05:25:56;10.35;;;6.22;;
64487;SDS011;50864;45.050;39.014;2023-07-24T05:28:23;7.93;;;5.65;;
64487;SDS011;50864;45.050;39.014;2023-07-24T05:30:49;8.63;;;5.25;;
64487;SDS011;50864;45.050;39.014;2023-07-24T05:33:14;10.27;;;5.50;;
64487;SDS011;50864;45.050;39.014;2023-07-24T05:35:40;8.02;;;5.57;;
64487;SDS011;50864;45.050;39.014;2023-07-24T05:38:06;8.45;;;5.97;;
64487;SDS011;50864;45.050;39.014;2023-07-24T05:40:32;8.07;;;5.10;;
64487;SDS011;50864;45.050;39.014;2023-07-24T05:42:57;8.32;;;5.53;;
64487;SDS011;50864;45.050;39.014;2023-07-24T05:45:23;8.30;;;5.20;;
64487;SDS011;50864;45.050;39.014;2023-07-24T05:47:49;7.87;;;5.07;;
64487;SDS011;50864;45.050;39.014;2023-07-24T05:50:15;8.65;;;5.28;;
64487;SDS011;50864;45.050;39.014;2023-07-24T05:52:41;8.68;;;5.40;;
64487;SDS011;50864;45.050;39.014;2023-07-24T05:55:06;9.50;;;5.28;;
64487;SDS011;50864;45.050;39.014;2023-07-24T05:57:32;8.45;;;4.82;;
64487;SDS011;50864;45.050;39.014;2023-07-24T05:59:58;9.40;;;5.45;;
64487;SDS011;50864;45.050;39.014;2023-07-24T06:02:24;6.93;;;5.05;;
64487;SDS011;50864;45.050;39.014;2023-07-24T06:04:50;8.57;;;5.80;;
64487;SDS011;50864;45.050;39.014;2023-07-24T06:07:16;11.05;;;5.85;;
64487;SDS011;50864;45.050;39.014;2023-07-24T06:09:41;9.45;;;5.20;;
64487;SDS011;50864;45.050;39.014;2023-07-24T06:12:07;12.23;;;7.12;;
64487;SDS011;50864;45.050;39.014;2023-07-24T06:14:33;8.07;;;5.43;;
64487;SDS011;50864;45.050;39.014;2023-07-24T06:16:58;15.20;;;6.25;;
64487;SDS011;50864;45.050;39.014;2023-07-24T06:19:24;8.88;;;5.45;;
64487;SDS011;50864;45.050;39.014;2023-07-24T06:21:50;9.32;;;6.10;;
64487;SDS011;50864;45.050;39.014;2023-07-24T06:24:16;10.25;;;5.85;;
64487;SDS011;50864;45.050;39.014;2023-07-24T06:26:42;8.35;;;5.45;;
64487;SDS011;50864;45.050;39.014;2023-07-24T06:29:07;13.05;;;6.15;;
64487;SDS011;50864;45.050;39.014;2023-07-24T06:31:33;7.87;;;5.35;;
64487;SDS011;50864;45.050;39.014;2023-07-24T06:34:00;8.13;;;5.20;;
64487;SDS011;50864;45.050;39.014;2023-07-24T06:36:26;9.35;;;5.25;;
64487;SDS011;50864;45.050;39.014;2023-07-24T06:38:51;9.25;;;5.07;;
64487;SDS011;50864;45.050;39.014;2023-07-24T06:41:17;10.00;;;5.87;;
64487;SDS011;50864;45.050;39.014;2023-07-24T06:43:45;9.85;;;5.82;;
64487;SDS011;50864;45.050;39.014;2023-07-24T06:46:11;40.17;;;9.15;;
64487;SDS011;50864;45.050;39.014;2023-07-24T06:48:37;18.87;;;6.25;;
64487;SDS011;50864;45.050;39.014;2023-07-24T06:51:02;11.90;;;6.22;;
64487;SDS011;50864;45.050;39.014;2023-07-24T06:53:28;36.45;;;8.50;;
64487;SDS011;50864;45.050;39.014;2023-07-24T06:55:54;9.52;;;6.07;;
64487;SDS011;50864;45.050;39.014;2023-07-24T06:58:20;27.75;;;7.90;;
64487;SDS011;50864;45.050;39.014;2023-07-24T07:00:45;10.30;;;5.90;;
64487;SDS011;50864;45.050;39.014;2023-07-24T07:03:11;11.98;;;6.03;;
64487;SDS011;50864;45.050;39.014;2023-07-24T07:05:37;9.43;;;6.22;;
64487;SDS011;50864;45.050;39.014;2023-07-24T07:08:04;8.02;;;6.05;;
64487;SDS011;50864;45.050;39.014;2023-07-24T07:10:31;15.77;;;6.62;;
64487;SDS011;50864;45.050;39.014;2023-07-24T07:12:57;10.10;;;6.68;;
64487;SDS011;50864;45.050;39.014;2023-07-24T07:15:23;8.75;;;6.35;;
64487;SDS011;50864;45.050;39.014;2023-07-24T07:17:49;11.07;;;7.00;;
64487;SDS011;50864;45.050;39.014;2023-07-24T07:20:14;9.18;;;6.43;;
64487;SDS011;50864;45.050;39.014;2023-07-24T07:22:40;10.05;;;6.75;;
64487;SDS011;50864;45.050;39.014;2023-07-24T07:25:06;11.55;;;7.32;;
64487;SDS011;50864;45.050;39.014;2023-07-24T07:27:32;9.77;;;6.40;;
64487;SDS011;50864;45.050;39.014;2023-07-24T07:29:58;11.90;;;7.05;;
64487;SDS011;50864;45.050;39.014;2023-07-24T07:32:24;11.48;;;6.65;;
64487;SDS011;50864;45.050;39.014;2023-07-24T07:34:50;14.43;;;6.28;;
64487;SDS011;50864;45.050;39.014;2023-07-24T07:37:16;11.65;;;7.15;;
64487;SDS011;50864;45.050;39.014;2023-07-24T07:39:42;11.95;;;7.15;;
64487;SDS011;50864;45.050;39.014;2023-07-24T07:42:07;11.75;;;7.43;;
64487;SDS011;50864;45.050;39.014;2023-07-24T07:44:33;11.63;;;6.85;;
64487;SDS011;50864;45.050;39.014;2023-07-24T07:46:59;9.18;;;6.78;;
64487;SDS011;50864;45.050;39.014;2023-07-24T07:49:25;8.88;;;6.40;;
64487;SDS011;50864;45.050;39.014;2023-07-24T07:51:50;9.50;;;5.93;;
64487;SDS011;50864;45.050;39.014;2023-07-24T07:54:16;11.65;;;6.70;;
64487;SDS011;50864;45.050;39.014;2023-07-24T07:56:42;11.40;;;6.30;;
64487;SDS011;50864;45.050;39.014;2023-07-24T07:59:07;9.07;;;6.30;;
64487;SDS011;50864;45.050;39.014;2023-07-24T08:01:35;9.40;;;6.43;;
64487;SDS011;50864;45.050;39.014;2023-07-24T08:04:01;8.60;;;6.20;;
64487;SDS011;50864;45.050;39.014;2023-07-24T08:06:27;8.65;;;6.10;;
64487;SDS011;50864;45.050;39.014;2023-07-24T08:08:53;9.15;;;6.68;;
64487;SDS011;50864;45.050;39.014;2023-07-24T08:11:19;9.82;;;6.62;;
64487;SDS011;50864;45.050;39.014;2023-07-24T08:13:44;11.38;;;6.40;;
64487;SDS011;50864;45.050;39.014;2023-07-24T08:16:13;12.43;;;6.90;;
64487;SDS011;50864;45.050;39.014;2023-07-24T08:18:47;10.40;;;7.20;;
64487;SDS011;50864;45.050;39.014;2023-07-24T08:21:13;10.40;;;7.07;;
64487;SDS011;50864;45.050;39.014;2023-07-24T08:23:39;10.02;;;6.90;;
64487;SDS011;50864;45.050;39.014;2023-07-24T08:26:06;10.65;;;6.80;;
64487;SDS011;50864;45.050;39.014;2023-07-24T08:28:33;10.45;;;6.40;;
64487;SDS011;50864;45.050;39.014;2023-07-24T08:31:02;10.45;;;6.47;;
64487;SDS011;50864;45.050;39.014;2023-07-24T08:33:28;9.20;;;6.30;;
64487;SDS011;50864;45.050;39.014;2023-07-24T08:36:12;9.65;;;5.78;;
64487;SDS011;50864;45.050;39.014;2023-07-24T08:38:40;8.07;;;5.70;;
64487;SDS011;50864;45.050;39.014;2023-07-24T08:41:07;12.50;;;6.40;;
64487;SDS011;50864;45.050;39.014;2023-07-24T08:43:37;12.23;;;6.20;;
64487;SDS011;50864;45.050;39.014;2023-07-24T08:46:03;11.68;;;7.12;;
64487;SDS011;50864;45.050;39.014;2023-07-24T08:48:37;13.73;;;6.10;;
64487;SDS011;50864;45.050;39.014;2023-07-24T08:51:04;14.35;;;7.20;;
64487;SDS011;50864;45.050;39.014;2023-07-24T08:53:30;13.27;;;6.53;;
64487;SDS011;50864;45.050;39.014;2023-07-24T08:55:57;10.20;;;6.70;;
64487;SDS011;50864;45.050;39.014;2023-07-24T08:58:25;14.55;;;6.90;;
64487;SDS011;50864;45.050;39.014;2023-07-24T09:00:50;12.55;;;6.30;;
64487;SDS011;50864;45.050;39.014;2023-07-24T09:03:19;11.57;;;6.05;;
64487;SDS011;50864;45.050;39.014;2023-07-24T09:05:46;10.85;;;6.40;;
64487;SDS011;50864;45.050;39.014;2023-07-24T09:08:11;9.98;;;6.25;;
64487;SDS011;50864;45.050;39.014;2023-07-24T09:10:37;11.32;;;6.22;;
64487;SDS011;50864;45.050;39.014;2023-07-24T09:13:03;14.75;;;7.35;;
64487;SDS011;50864;45.050;39.014;2023-07-24T09:15:38;11.85;;;6.35;;
64487;SDS011;50864;45.050;39.014;2023-07-24T09:18:04;15.77;;;6.18;;
64487;SDS011;50864;45.050;39.014;2023-07-24T09:20:37;7.15;;;5.78;;
64487;SDS011;50864;45.050;39.014;2023-07-24T09:23:03;12.23;;;6.43;;
64487;SDS011;50864;45.050;39.014;2023-07-24T09:25:29;8.60;;;6.20;;
64487;SDS011;50864;45.050;39.014;2023-07-24T09:27:55;8.00;;;5.70;;
64487;SDS011;50864;45.050;39.014;2023-07-24T09:30:20;10.80;;;6.32;;
64487;SDS011;50864;45.050;39.014;2023-07-24T09:32:53;9.52;;;6.18;;
64487;SDS011;50864;45.050;39.014;2023-07-24T09:35:19;10.07;;;6.28;;
64487;SDS011;50864;45.050;39.014;2023-07-24T09:37:47;10.90;;;6.10;;
64487;SDS011;50864;45.050;39.014;2023-07-24T09:40:14;12.00;;;5.60;;
64487;SDS011;50864;45.050;39.014;2023-07-24T09:42:40;8.15;;;5.80;;
64487;SDS011;50864;45.050;39.014;2023-07-24T09:45:06;10.38;;;5.70;;
64487;SDS011;50864;45.050;39.014;2023-07-24T09:47:34;11.40;;;5.78;;
64487;SDS011;50864;45.050;39.014;2023-07-24T09:50:03;10.32;;;6.40;;
64487;SDS011;50864;45.050;39.014;2023-07-24T09:52:30;9.30;;;5.85;;
64487;SDS011;50864;45.050;39.014;2023-07-24T09:57:32;9.13;;;5.18;;
64487;SDS011;50864;45.050;39.014;2023-07-24T09:59:58;7.07;;;5.10;;
64487;SDS011;50864;45.050;39.014;2023-07-24T10:02:25;7.82;;;5.30;;
64487;SDS011;50864;45.050;39.014;2023-07-24T10:04:52;10.88;;;5.60;;
64487;SDS011;50864;45.050;39.014;2023-07-24T10:07:18;7.62;;;5.25;;
64487;SDS011;50864;45.050;39.014;2023-07-24T10:09:47;9.48;;;5.95;;
64487;SDS011;50864;45.050;39.014;2023-07-24T10:12:14;10.25;;;5.60;;
64487;SDS011;50864;45.050;39.014;2023-07-24T10:14:41;9.93;;;5.72;;
64487;SDS011;50864;45.050;39.014;2023-07-24T10:17:07;11.12;;;5.20;;
64487;SDS011;50864;45.050;39.014;2023-07-24T10:19:40;8.60;;;5.40;;
64487;SDS011;50864;45.050;39.014;2023-07-24T10:22:17;7.62;;;5.07;;
64487;SDS011;50864;45.050;39.014;2023-07-24T10:24:45;12.45;;;5.05;;
64487;SDS011;50864;45.050;39.014;2023-07-24T10:27:11;9.40;;;6.47;;
64487;SDS011;50864;45.050;39.014;2023-07-24T10:29:37;8.18;;;5.87;;
64487;SDS011;50864;45.050;39.014;2023-07-24T10:32:03;9.10;;;5.62;;
64487;SDS011;50864;45.050;39.014;2023-07-24T10:34:38;9.02;;;5.55;;
64487;SDS011;50864;45.050;39.014;2023-07-24T10:37:06;13.95;;;5.60;;
64487;SDS011;50864;45.050;39.014;2023-07-24T10:39:37;9.48;;;5.35;;
64487;SDS011;50864;45.050;39.014;2023-07-24T10:42:09;8.85;;;5.68;;
64487;SDS011;50864;45.050;39.014;2023-07-24T10:44:36;12.02;;;6.10;;
64487;SDS011;50864;45.050;39.014;2023-07-24T10:47:02;11.02;;;5.62;;
64487;SDS011;50864;45.050;39.014;2023-07-24T10:49:28;11.50;;;6.20;;
64487;SDS011;50864;45.050;39.014;2023-07-24T10:51:55;10.98;;;6.28;;
64487;SDS011;50864;45.050;39.014;2023-07-24T10:54:21;9.40;;;6.20;;
64487;SDS011;50864;45.050;39.014;2023-07-24T10:56:47;10.52;;;5.72;;
64487;SDS011;50864;45.050;39.014;2023-07-24T10:59:13;12.77;;;6.18;;
64487;SDS011;50864;45.050;39.014;2023-07-24T11:01:40;11.65;;;7.55;;
64487;SDS011;50864;45.050;39.014;2023-07-24T11:04:07;8.05;;;5.70;;
64487;SDS011;50864;45.050;39.014;2023-07-24T11:06:34;9.93;;;5.57;;
64487;SDS011;50864;45.050;39.014;2023-07-24T11:09:00;9.77;;;5.70;;
64487;SDS011;50864;45.050;39.014;2023-07-24T11:11:29;13.13;;;6.12;;
64487;SDS011;50864;45.050;39.014;2023-07-24T11:13:55;12.18;;;5.35;;
64487;SDS011;50864;45.050;39.014;2023-07-24T11:16:21;8.50;;;5.28;;
64487;SDS011;50864;45.050;39.014;2023-07-24T11:18:47;12.10;;;5.90;;
64487;SDS011;50864;45.050;39.014;2023-07-24T11:21:13;12.40;;;5.68;;
64487;SDS011;50864;45.050;39.014;2023-07-24T11:23:52;8.98;;;5.55;;
64487;SDS011;50864;45.050;39.014;2023-07-24T11:26:18;8.93;;;5.62;;
64487;SDS011;50864;45.050;39.014;2023-07-24T11:28:44;9.32;;;5.95;;
64487;SDS011;50864;45.050;39.014;2023-07-24T11:31:10;11.25;;;5.87;;
64487;SDS011;50864;45.050;39.014;2023-07-24T11:33:37;7.97;;;5.07;;
64487;SDS011;50864;45.050;39.014;2023-07-24T11:36:03;8.75;;;5.68;;
64487;SDS011;50864;45.050;39.014;2023-07-24T11:38:30;10.30;;;5.40;;
64487;SDS011;50864;45.050;39.014;2023-07-24T11:40:56;12.70;;;5.30;;
64487;SDS011;50864;45.050;39.014;2023-07-24T11:43:22;7.78;;;5.15;;
64487;SDS011;50864;45.050;39.014;2023-07-24T11:45:49;8.02;;;5.03;;
64487;SDS011;50864;45.050;39.014;2023-07-24T11:48:18;7.60;;;5.30;;
64487;SDS011;50864;45.050;39.014;2023-07-24T11:50:45;8.25;;;5.97;;
64487;SDS011;50864;45.050;39.014;2023-07-24T11:53:24;10.45;;;5.20;;
64487;SDS011;50864;45.050;39.014;2023-07-24T11:55:51;10.85;;;5.15;;
64487;SDS011;50864;45.050;39.014;2023-07-24T11:58:17;7.87;;;4.87;;
64487;SDS011;50864;45.050;39.014;2023-07-24T12:00:43;8.98;;;5.93;;
64487;SDS011;50864;45.050;39.014;2023-07-24T12:03:09;9.25;;;4.95;;
64487;SDS011;50864;45.050;39.014;2023-07-24T12:05:41;9.18;;;4.93;;
64487;SDS011;50864;45.050;39.014;2023-07-24T12:08:07;9.55;;;4.93;;
64487;SDS011;50864;45.050;39.014;2023-07-24T12:10:35;9.20;;;5.15;;
64487;SDS011;50864;45.050;39.014;2023-07-24T12:13:01;8.43;;;4.85;;
64487;SDS011;50864;45.050;39.014;2023-07-24T12:15:27;8.48;;;4.72;;
64487;SDS011;50864;45.050;39.014;2023-07-24T12:17:53;9.15;;;5.00;;
64487;SDS011;50864;45.050;39.014;2023-07-24T12:20:19;7.85;;;4.82;;
64487;SDS011;50864;45.050;39.014;2023-07-24T12:22:45;6.50;;;4.40;;
64487;SDS011;50864;45.050;39.014;2023-07-24T12:25:12;7.75;;;4.40;;
64487;SDS011;50864;45.050;39.014;2023-07-24T12:27:39;9.25;;;4.90;;
64487;SDS011;50864;45.050;39.014;2023-07-24T12:30:06;10.00;;;4.75;;
64487;SDS011;50864;45.050;39.014;2023-07-24T12:32:33;10.63;;;5.15;;
64487;SDS011;50864;45.050;39.014;2023-07-24T12:34:58;9.52;;;4.53;;
64487;SDS011;50864;45.050;39.014;2023-07-24T12:37:24;9.23;;;5.15;;
64487;SDS011;50864;45.050;39.014;2023-07-24T12:39:50;8.15;;;4.95;;
64487;SDS011;50864;45.050;39.014;2023-07-24T12:42:16;8.65;;;4.75;;
64487;SDS011;50864;45.050;39.014;2023-07-24T12:44:42;6.90;;;4.75;;
64487;SDS011;50864;45.050;39.014;2023-07-24T12:47:08;9.35;;;4.82;;
64487;SDS011;50864;45.050;39.014;2023-07-24T12:49:34;10.23;;;4.80;;
64487;SDS011;50864;45.050;39.014;2023-07-24T12:52:00;13.00;;;6.07;;
64487;SDS011;50864;45.050;39.014;2023-07-24T12:54:27;13.18;;;5.45;;
64487;SDS011;50864;45.050;39.014;2023-07-24T12:56:52;8.88;;;5.28;;
64487;SDS011;50864;45.050;39.014;2023-07-24T12:59:18;9.55;;;5.47;;
64487;SDS011;50864;45.050;39.014;2023-07-24T13:01:44;10.07;;;5.20;;
64487;SDS011;50864;45.050;39.014;2023-07-24T13:04:10;13.20;;;5.47;;
64487;SDS011;50864;45.050;39.014;2023-07-24T13:06:35;9.57;;;5.47;;
64487;SDS011;50864;45.050;39.014;2023-07-24T13:09:03;7.72;;;5.25;;
64487;SDS011;50864;45.050;39.014;2023-07-24T13:11:29;7.97;;;5.57;;
64487;SDS011;50864;45.050;39.014;2023-07-24T13:13:55;8.32;;;5.35;;
64487;SDS011;50864;45.050;39.014;2023-07-24T13:16:21;9.10;;;5.93;;
64487;SDS011;50864;45.050;39.014;2023-07-24T13:18:47;8.75;;;5.28;;
64487;SDS011;50864;45.050;39.014;2023-07-24T13:21:13;9.57;;;5.70;;
64487;SDS011;50864;45.050;39.014;2023-07-24T13:23:40;10.82;;;5.85;;
64487;SDS011;50864;45.050;39.014;2023-07-24T13:26:05;9.60;;;6.28;;
64487;SDS011;50864;45.050;39.014;2023-07-24T13:28:33;9.23;;;5.55;;
64487;SDS011;50864;45.050;39.014;2023-07-24T13:31:10;11.45;;;5.50;;
64487;SDS011;50864;45.050;39.014;2023-07-24T13:33:35;14.63;;;8.10;;
64487;SDS011;50864;45.050;39.014;2023-07-24T13:36:01;14.32;;;6.85;;
64487;SDS011;50864;45.050;39.014;2023-07-24T13:38:27;9.88;;;6.05;;
64487;SDS011;50864;45.050;39.014;2023-07-24T13:40:53;8.73;;;6.15;;
64487;SDS011;50864;45.050;39.014;2023-07-24T13:43:19;10.65;;;5.95;;
64487;SDS011;50864;45.050;39.014;2023-07-24T13:45:44;13.57;;;6.40;;
64487;SDS011;50864;45.050;39.014;2023-07-24T13:48:10;9.75;;;6.03;;
64487;SDS011;50864;45.050;39.014;2023-07-24T13:50:36;15.57;;;6.10;;
64487;SDS011;50864;45.050;39.014;2023-07-24T13:53:03;9.88;;;6.20;;
64487;SDS011;50864;45.050;39.014;2023-07-24T13:55:29;10.90;;;6.15;;
64487;SDS011;50864;45.050;39.014;2023-07-24T13:57:56;9.43;;;6.47;;
64487;SDS011;50864;45.050;39.014;2023-07-24T14:00:21;8.85;;;5.68;;
64487;SDS011;50864;45.050;39.014;2023-07-24T14:02:48;9.85;;;6.10;;
64487;SDS011;50864;45.050;39.014;2023-07-24T14:05:13;15.10;;;6.22;;
64487;SDS011;50864;45.050;39.014;2023-07-24T14:07:41;9.32;;;5.90;;
64487;SDS011;50864;45.050;39.014;2023-07-24T14:10:07;7.97;;;5.57;;
64487;SDS011;50864;45.050;39.014;2023-07-24T14:12:34;8.50;;;5.43;;
64487;SDS011;50864;45.050;39.014;2023-07-24T14:15:02;9.55;;;5.62;;
64487;SDS011;50864;45.050;39.014;2023-07-24T14:17:29;8.68;;;6.15;;
64487;SDS011;50864;45.050;39.014;2023-07-24T14:19:55;9.23;;;5.45;;
64487;SDS011;50864;45.050;39.014;2023-07-24T14:22:20;8.77;;;5.82;;
64487;SDS011;50864;45.050;39.014;2023-07-24T14:24:47;9.30;;;5.75;;
64487;SDS011;50864;45.050;39.014;2023-07-24T14:27:14;7.25;;;5.47;;
64487;SDS011;50864;45.050;39.014;2023-07-24T14:29:40;7.72;;;5.47;;
64487;SDS011;50864;45.050;39.014;2023-07-24T14:32:06;11.95;;;5.60;;
64487;SDS011;50864;45.050;39.014;2023-07-24T14:34:32;7.70;;;5.53;;